sensor_id;sensor_type;location;lat;lon;timestamp;P1;durP1;ratioP1;P2;durP2;ratioP2
13028;SDS011;6581;42.662;23.402;2024-02-26T00:01:25;11.45;;;5.00;;
13028;SDS011;6581;42.662;23.402;2024-02-26T00:03:51;9.85;;;4.80;;
13028;SDS011;6581;42.662;23.402;2024-02-26T00:06:17;8.93;;;5.30;;
13028;SDS011;6581;42.662;23.402;2024-02-26T00:08:43;10.98;;;5.65;;
13028;SDS011;6581;42.662;23.402;2024-02-26T00:11:09;10.50;;;5.97;;
13028;SDS011;6581;42.662;23.402;2024-02-26T00:13:35;10.15;;;5.95;;
13028;SDS011;6581;42.662;23.402;2024-02-26T00:16:01;10.73;;;5.55;;
13028;SDS011;6581;42.662;23.402;2024-02-26T00:18:26;9.90;;;6.07;;
13028;SDS011;6581;42.662;23.402;2024-02-26T00:20:52;11.05;;;5.07;;
13028;SDS011;6581;42.662;23.402;2024-02-26T00:23:17;11.88;;;5.20;;
13028;SDS011;6581;42.662;23.402;2024-02-26T00:25:43;8.70;;;5.00;;
13028;SDS011;6581;42.662;23.402;2024-02-26T00:28:10;12.45;;;6.40;;
13028;SDS011;6581;42.662;23.402;2024-02-26T00:30:35;12.15;;;5.25;;
13028;SDS011;6581;42.662;23.402;2024-02-26T00:33:01;8.95;;;5.10;;
13028;SDS011;6581;42.662;23.402;2024-02-26T00:35:27;9.38;;;4.95;;
13028;SDS011;6581;42.662;23.402;2024-02-26T00:37:52;10.07;;;5.30;;
13028;SDS011;6581;42.662;23.402;2024-02-26T00:40:18;12.57;;;6.47;;
13028;SDS011;6581;42.662;23.402;2024-02-26T00:42:44;9.57;;;6.03;;
13028;SDS011;6581;42.662;23.402;2024-02-26T00:45:11;11.00;;;5.00;;
13028;SDS011;6581;42.662;23.402;2024-02-26T00:47:37;12.32;;;6.00;;
13028;SDS011;6581;42.662;23.402;2024-02-26T00:50:06;11.70;;;6.78;;
13028;SDS011;6581;42.662;23.402;2024-02-26T00:52:32;10.13;;;5.68;;
13028;SDS011;6581;42.662;23.402;2024-02-26T00:54:57;12.57;;;6.38;;
13028;SDS011;6581;42.662;23.402;2024-02-26T00:57:23;11.35;;;6.07;;
13028;SDS011;6581;42.662;23.402;2024-02-26T00:59:49;13.63;;;5.95;;
13028;SDS011;6581;42.662;23.402;2024-02-26T01:02:15;12.32;;;5.85;;
13028;SDS011;6581;42.662;23.402;2024-02-26T01:04:41;10.90;;;6.18;;
13028;SDS011;6581;42.662;23.402;2024-02-26T01:07:06;11.38;;;7.05;;
13028;SDS011;6581;42.662;23.402;2024-02-26T01:09:32;14.65;;;6.60;;
13028;SDS011;6581;42.662;23.402;2024-02-26T01:11:58;11.02;;;6.78;;
13028;SDS011;6581;42.662;23.402;2024-02-26T01:14:23;13.07;;;6.85;;
13028;SDS011;6581;42.662;23.402;2024-02-26T01:16:49;12.75;;;6.63;;
13028;SDS011;6581;42.662;23.402;2024-02-26T01:19:14;15.18;;;5.95;;
13028;SDS011;6581;42.662;23.402;2024-02-26T01:21:40;14.10;;;7.80;;
13028;SDS011;6581;42.662;23.402;2024-02-26T01:24:06;13.82;;;7.03;;
13028;SDS011;6581;42.662;23.402;2024-02-26T01:26:32;12.90;;;6.93;;
13028;SDS011;6581;42.662;23.402;2024-02-26T01:28:58;17.00;;;7.03;;
13028;SDS011;6581;42.662;23.402;2024-02-26T01:31:23;13.27;;;6.55;;
13028;SDS011;6581;42.662;23.402;2024-02-26T01:33:49;13.95;;;7.03;;
13028;SDS011;6581;42.662;23.402;2024-02-26T01:36:14;13.60;;;6.97;;
13028;SDS011;6581;42.662;23.402;2024-02-26T01:38:40;16.73;;;7.22;;
13028;SDS011;6581;42.662;23.402;2024-02-26T01:41:05;11.88;;;6.55;;
13028;SDS011;6581;42.662;23.402;2024-02-26T01:43:31;14.07;;;7.47;;
13028;SDS011;6581;42.662;23.402;2024-02-26T01:45:57;10.63;;;6.00;;
13028;SDS011;6581;42.662;23.402;2024-02-26T01:48:23;15.13;;;7.60;;
13028;SDS011;6581;42.662;23.402;2024-02-26T01:50:49;13.65;;;6.82;;
13028;SDS011;6581;42.662;23.402;2024-02-26T01:53:15;12.43;;;7.25;;
13028;SDS011;6581;42.662;23.402;2024-02-26T01:55:41;14.75;;;8.23;;
13028;SDS011;6581;42.662;23.402;2024-02-26T01:58:07;20.83;;;9.25;;
13028;SDS011;6581;42.662;23.402;2024-02-26T02:00:34;15.00;;;8.10;;
13028;SDS011;6581;42.662;23.402;2024-02-26T02:03:00;15.30;;;8.80;;
13028;SDS011;6581;42.662;23.402;2024-02-26T02:05:26;20.48;;;10.63;;
13028;SDS011;6581;42.662;23.402;2024-02-26T02:07:52;23.52;;;11.88;;
13028;SDS011;6581;42.662;23.402;2024-02-26T02:10:19;26.13;;;13.00;;
13028;SDS011;6581;42.662;23.402;2024-02-26T02:12:48;26.02;;;14.48;;
13028;SDS011;6581;42.662;23.402;2024-02-26T02:15:14;28.35;;;15.40;;
13028;SDS011;6581;42.662;23.402;2024-02-26T02:17:39;29.02;;;14.18;;
13028;SDS011;6581;42.662;23.402;2024-02-26T02:20:08;17.73;;;9.00;;
13028;SDS011;6581;42.662;23.402;2024-02-26T02:22:44;12.15;;;5.90;;
13028;SDS011;6581;42.662;23.402;2024-02-26T02:25:10;12.20;;;5.70;;
13028;SDS011;6581;42.662;23.402;2024-02-26T02:27:36;9.73;;;5.20;;
13028;SDS011;6581;42.662;23.402;2024-02-26T02:30:01;12.05;;;5.50;;
13028;SDS011;6581;42.662;23.402;2024-02-26T02:32:28;9.98;;;5.72;;
13028;SDS011;6581;42.662;23.402;2024-02-26T02:34:54;12.50;;;6.85;;
13028;SDS011;6581;42.662;23.402;2024-02-26T02:37:20;12.90;;;7.05;;
13028;SDS011;6581;42.662;23.402;2024-02-26T02:39:46;13.35;;;7.30;;
13028;SDS011;6581;42.662;23.402;2024-02-26T02:42:11;13.00;;;6.50;;
13028;SDS011;6581;42.662;23.402;2024-02-26T02:44:37;13.50;;;7.00;;
13028;SDS011;6581;42.662;23.402;2024-02-26T02:47:02;12.93;;;6.53;;
13028;SDS011;6581;42.662;23.402;2024-02-26T02:49:28;14.63;;;7.18;;
13028;SDS011;6581;42.662;23.402;2024-02-26T02:51:54;12.43;;;6.70;;
13028;SDS011;6581;42.662;23.402;2024-02-26T02:54:19;12.02;;;6.38;;
13028;SDS011;6581;42.662;23.402;2024-02-26T02:56:45;11.32;;;7.18;;
13028;SDS011;6581;42.662;23.402;2024-02-26T02:59:11;12.30;;;6.72;;
13028;SDS011;6581;42.662;23.402;2024-02-26T03:01:36;13.30;;;7.13;;
13028;SDS011;6581;42.662;23.402;2024-02-26T03:04:02;13.05;;;7.20;;
13028;SDS011;6581;42.662;23.402;2024-02-26T03:06:27;13.18;;;7.05;;
13028;SDS011;6581;42.662;23.402;2024-02-26T03:08:53;14.52;;;7.72;;
13028;SDS011;6581;42.662;23.402;2024-02-26T03:11:19;12.30;;;6.93;;
13028;SDS011;6581;42.662;23.402;2024-02-26T03:13:45;12.98;;;6.90;;
13028;SDS011;6581;42.662;23.402;2024-02-26T03:16:11;12.65;;;7.47;;
13028;SDS011;6581;42.662;23.402;2024-02-26T03:18:40;14.70;;;7.25;;
13028;SDS011;6581;42.662;23.402;2024-02-26T03:21:06;12.55;;;6.60;;
13028;SDS011;6581;42.662;23.402;2024-02-26T03:23:31;14.75;;;7.68;;
13028;SDS011;6581;42.662;23.402;2024-02-26T03:26:01;14.20;;;7.72;;
13028;SDS011;6581;42.662;23.402;2024-02-26T03:28:30;10.63;;;6.18;;
13028;SDS011;6581;42.662;23.402;2024-02-26T03:30:58;13.98;;;7.35;;
13028;SDS011;6581;42.662;23.402;2024-02-26T03:33:24;13.07;;;7.95;;
13028;SDS011;6581;42.662;23.402;2024-02-26T03:35:49;14.40;;;7.82;;
13028;SDS011;6581;42.662;23.402;2024-02-26T03:38:15;16.10;;;7.88;;
13028;SDS011;6581;42.662;23.402;2024-02-26T03:40:40;16.90;;;7.75;;
13028;SDS011;6581;42.662;23.402;2024-02-26T03:43:06;14.27;;;7.70;;
13028;SDS011;6581;42.662;23.402;2024-02-26T03:45:32;13.88;;;7.68;;
13028;SDS011;6581;42.662;23.402;2024-02-26T03:47:58;19.08;;;10.50;;
13028;SDS011;6581;42.662;23.402;2024-02-26T03:50:24;21.42;;;13.02;;
13028;SDS011;6581;42.662;23.402;2024-02-26T03:52:49;23.73;;;13.10;;
13028;SDS011;6581;42.662;23.402;2024-02-26T03:55:15;27.45;;;16.23;;
13028;SDS011;6581;42.662;23.402;2024-02-26T03:57:43;31.45;;;15.57;;
13028;SDS011;6581;42.662;23.402;2024-02-26T04:00:08;30.42;;;17.23;;
13028;SDS011;6581;42.662;23.402;2024-02-26T04:02:34;42.53;;;22.42;;
13028;SDS011;6581;42.662;23.402;2024-02-26T04:05:00;40.28;;;20.65;;
13028;SDS011;6581;42.662;23.402;2024-02-26T04:07:25;40.75;;;20.67;;
13028;SDS011;6581;42.662;23.402;2024-02-26T04:09:51;39.50;;;21.08;;
13028;SDS011;6581;42.662;23.402;2024-02-26T04:12:16;40.83;;;20.83;;
13028;SDS011;6581;42.662;23.402;2024-02-26T04:14:42;39.97;;;22.35;;
13028;SDS011;6581;42.662;23.402;2024-02-26T04:17:07;49.10;;;22.77;;
13028;SDS011;6581;42.662;23.402;2024-02-26T04:19:33;49.95;;;24.83;;
13028;SDS011;6581;42.662;23.402;2024-02-26T04:21:59;49.90;;;24.67;;
13028;SDS011;6581;42.662;23.402;2024-02-26T04:24:25;44.40;;;23.13;;
13028;SDS011;6581;42.662;23.402;2024-02-26T04:26:50;44.65;;;21.17;;
13028;SDS011;6581;42.662;23.402;2024-02-26T04:29:16;40.45;;;20.70;;
13028;SDS011;6581;42.662;23.402;2024-02-26T04:31:41;40.45;;;20.85;;
13028;SDS011;6581;42.662;23.402;2024-02-26T04:34:08;44.97;;;20.70;;
13028;SDS011;6581;42.662;23.402;2024-02-26T04:36:33;39.70;;;20.52;;
13028;SDS011;6581;42.662;23.402;2024-02-26T04:38:59;36.75;;;19.52;;
13028;SDS011;6581;42.662;23.402;2024-02-26T04:41:24;38.35;;;19.38;;
13028;SDS011;6581;42.662;23.402;2024-02-26T04:43:50;43.50;;;21.60;;
13028;SDS011;6581;42.662;23.402;2024-02-26T04:46:15;37.55;;;20.83;;
13028;SDS011;6581;42.662;23.402;2024-02-26T04:48:41;44.40;;;21.88;;
13028;SDS011;6581;42.662;23.402;2024-02-26T04:51:11;40.60;;;20.60;;
13028;SDS011;6581;42.662;23.402;2024-02-26T04:53:37;40.20;;;18.27;;
13028;SDS011;6581;42.662;23.402;2024-02-26T04:56:02;34.75;;;17.98;;
13028;SDS011;6581;42.662;23.402;2024-02-26T04:58:28;38.00;;;17.40;;
13028;SDS011;6581;42.662;23.402;2024-02-26T05:00:54;36.10;;;17.25;;
13028;SDS011;6581;42.662;23.402;2024-02-26T05:03:20;33.00;;;16.88;;
13028;SDS011;6581;42.662;23.402;2024-02-26T05:05:46;30.92;;;15.48;;
13028;SDS011;6581;42.662;23.402;2024-02-26T05:08:12;32.85;;;17.52;;
13028;SDS011;6581;42.662;23.402;2024-02-26T05:10:37;32.17;;;16.10;;
13028;SDS011;6581;42.662;23.402;2024-02-26T05:13:06;34.00;;;15.88;;
13028;SDS011;6581;42.662;23.402;2024-02-26T05:15:32;33.35;;;16.63;;
13028;SDS011;6581;42.662;23.402;2024-02-26T05:17:57;33.80;;;17.15;;
13028;SDS011;6581;42.662;23.402;2024-02-26T05:20:24;30.80;;;17.17;;
13028;SDS011;6581;42.662;23.402;2024-02-26T05:22:49;33.28;;;16.33;;
13028;SDS011;6581;42.662;23.402;2024-02-26T05:25:15;32.47;;;15.70;;
13028;SDS011;6581;42.662;23.402;2024-02-26T05:27:41;32.45;;;16.70;;
13028;SDS011;6581;42.662;23.402;2024-02-26T05:30:08;28.70;;;14.73;;
13028;SDS011;6581;42.662;23.402;2024-02-26T05:32:34;29.02;;;15.85;;
13028;SDS011;6581;42.662;23.402;2024-02-26T05:35:00;37.70;;;16.63;;
13028;SDS011;6581;42.662;23.402;2024-02-26T05:37:25;28.85;;;15.38;;
13028;SDS011;6581;42.662;23.402;2024-02-26T05:39:51;28.02;;;15.88;;
13028;SDS011;6581;42.662;23.402;2024-02-26T05:42:17;31.23;;;17.30;;
13028;SDS011;6581;42.662;23.402;2024-02-26T05:44:43;31.45;;;15.63;;
13028;SDS011;6581;42.662;23.402;2024-02-26T05:47:08;33.88;;;16.13;;
13028;SDS011;6581;42.662;23.402;2024-02-26T05:49:34;30.23;;;15.20;;
13028;SDS011;6581;42.662;23.402;2024-02-26T05:52:00;30.48;;;15.10;;
13028;SDS011;6581;42.662;23.402;2024-02-26T05:54:26;29.77;;;15.10;;
13028;SDS011;6581;42.662;23.402;2024-02-26T05:56:51;26.48;;;15.73;;
13028;SDS011;6581;42.662;23.402;2024-02-26T05:59:17;31.00;;;16.70;;
13028;SDS011;6581;42.662;23.402;2024-02-26T06:01:43;35.85;;;16.75;;
13028;SDS011;6581;42.662;23.402;2024-02-26T06:04:08;26.58;;;16.60;;
13028;SDS011;6581;42.662;23.402;2024-02-26T06:06:33;27.15;;;15.32;;
13028;SDS011;6581;42.662;23.402;2024-02-26T06:08:59;26.67;;;15.20;;
13028;SDS011;6581;42.662;23.402;2024-02-26T06:11:24;31.48;;;15.80;;
13028;SDS011;6581;42.662;23.402;2024-02-26T06:13:50;30.48;;;15.30;;
13028;SDS011;6581;42.662;23.402;2024-02-26T06:16:15;31.70;;;15.60;;
13028;SDS011;6581;42.662;23.402;2024-02-26T06:18:41;33.97;;;15.55;;
13028;SDS011;6581;42.662;23.402;2024-02-26T06:21:10;31.05;;;15.48;;
13028;SDS011;6581;42.662;23.402;2024-02-26T06:23:36;28.52;;;15.18;;
13028;SDS011;6581;42.662;23.402;2024-02-26T06:26:01;111.13;;;30.52;;
13028;SDS011;6581;42.662;23.402;2024-02-26T06:28:27;74.95;;;26.05;;
13028;SDS011;6581;42.662;23.402;2024-02-26T06:30:55;82.10;;;26.02;;
13028;SDS011;6581;42.662;23.402;2024-02-26T06:33:21;95.22;;;33.00;;
13028;SDS011;6581;42.662;23.402;2024-02-26T06:35:46;58.17;;;23.80;;
13028;SDS011;6581;42.662;23.402;2024-02-26T06:38:12;45.33;;;21.70;;
13028;SDS011;6581;42.662;23.402;2024-02-26T06:40:38;35.55;;;19.92;;
13028;SDS011;6581;42.662;23.402;2024-02-26T06:43:04;31.83;;;16.95;;
13028;SDS011;6581;42.662;23.402;2024-02-26T06:45:30;36.95;;;17.80;;
13028;SDS011;6581;42.662;23.402;2024-02-26T06:47:55;32.88;;;18.00;;
13028;SDS011;6581;42.662;23.402;2024-02-26T06:50:21;34.15;;;18.05;;
13028;SDS011;6581;42.662;23.402;2024-02-26T06:52:47;31.08;;;17.20;;
13028;SDS011;6581;42.662;23.402;2024-02-26T06:55:12;34.90;;;19.00;;
13028;SDS011;6581;42.662;23.402;2024-02-26T06:57:38;36.92;;;19.15;;
13028;SDS011;6581;42.662;23.402;2024-02-26T07:00:04;30.58;;;17.30;;
13028;SDS011;6581;42.662;23.402;2024-02-26T07:02:30;33.05;;;17.58;;
13028;SDS011;6581;42.662;23.402;2024-02-26T07:04:56;32.28;;;18.58;;
13028;SDS011;6581;42.662;23.402;2024-02-26T07:07:23;35.85;;;18.50;;
13028;SDS011;6581;42.662;23.402;2024-02-26T07:09:49;31.70;;;17.67;;
13028;SDS011;6581;42.662;23.402;2024-02-26T07:12:15;42.35;;;19.33;;
13028;SDS011;6581;42.662;23.402;2024-02-26T07:14:46;38.10;;;19.65;;
13028;SDS011;6581;42.662;23.402;2024-02-26T07:17:11;40.33;;;20.45;;
13028;SDS011;6581;42.662;23.402;2024-02-26T07:19:37;39.78;;;19.60;;
13028;SDS011;6581;42.662;23.402;2024-02-26T07:22:02;36.60;;;19.67;;
13028;SDS011;6581;42.662;23.402;2024-02-26T07:24:28;33.67;;;18.73;;
13028;SDS011;6581;42.662;23.402;2024-02-26T07:26:53;40.45;;;18.52;;
13028;SDS011;6581;42.662;23.402;2024-02-26T07:29:20;40.92;;;18.08;;
13028;SDS011;6581;42.662;23.402;2024-02-26T07:31:46;32.78;;;16.45;;
13028;SDS011;6581;42.662;23.402;2024-02-26T07:34:12;28.00;;;14.88;;
13028;SDS011;6581;42.662;23.402;2024-02-26T07:36:38;24.83;;;13.57;;
13028;SDS011;6581;42.662;23.402;2024-02-26T07:39:03;29.90;;;14.38;;
13028;SDS011;6581;42.662;23.402;2024-02-26T07:41:30;28.73;;;13.45;;
13028;SDS011;6581;42.662;23.402;2024-02-26T07:43:55;29.02;;;14.45;;
13028;SDS011;6581;42.662;23.402;2024-02-26T07:46:21;33.28;;;16.08;;
13028;SDS011;6581;42.662;23.402;2024-02-26T07:48:46;25.88;;;14.48;;
13028;SDS011;6581;42.662;23.402;2024-02-26T07:51:13;29.15;;;16.08;;
13028;SDS011;6581;42.662;23.402;2024-02-26T07:53:39;37.75;;;19.02;;
13028;SDS011;6581;42.662;23.402;2024-02-26T07:56:05;35.78;;;18.50;;
13028;SDS011;6581;42.662;23.402;2024-02-26T07:58:31;31.17;;;18.00;;
13028;SDS011;6581;42.662;23.402;2024-02-26T08:00:57;27.38;;;14.95;;
13028;SDS011;6581;42.662;23.402;2024-02-26T08:03:23;25.33;;;11.18;;
13028;SDS011;6581;42.662;23.402;2024-02-26T08:05:48;26.60;;;13.07;;
13028;SDS011;6581;42.662;23.402;2024-02-26T08:08:14;33.65;;;13.88;;
13028;SDS011;6581;42.662;23.402;2024-02-26T08:10:39;30.55;;;15.25;;
13028;SDS011;6581;42.662;23.402;2024-02-26T08:13:05;35.00;;;15.18;;
13028;SDS011;6581;42.662;23.402;2024-02-26T08:15:33;35.35;;;16.17;;
13028;SDS011;6581;42.662;23.402;2024-02-26T08:18:00;26.90;;;15.27;;
13028;SDS011;6581;42.662;23.402;2024-02-26T08:20:28;25.33;;;14.38;;
13028;SDS011;6581;42.662;23.402;2024-02-26T08:22:54;26.15;;;11.98;;
13028;SDS011;6581;42.662;23.402;2024-02-26T08:25:19;21.40;;;10.85;;
13028;SDS011;6581;42.662;23.402;2024-02-26T08:27:45;21.65;;;10.55;;
13028;SDS011;6581;42.662;23.402;2024-02-26T08:30:12;15.23;;;8.85;;
13028;SDS011;6581;42.662;23.402;2024-02-26T08:32:41;15.43;;;8.88;;
13028;SDS011;6581;42.662;23.402;2024-02-26T08:35:17;13.23;;;8.13;;
13028;SDS011;6581;42.662;23.402;2024-02-26T08:37:46;14.90;;;7.05;;
13028;SDS011;6581;42.662;23.402;2024-02-26T08:40:13;11.75;;;6.72;;
13028;SDS011;6581;42.662;23.402;2024-02-26T08:42:39;13.10;;;6.80;;
13028;SDS011;6581;42.662;23.402;2024-02-26T08:45:05;13.57;;;7.13;;
13028;SDS011;6581;42.662;23.402;2024-02-26T08:47:31;15.40;;;6.97;;
13028;SDS011;6581;42.662;23.402;2024-02-26T08:49:57;12.60;;;7.50;;
13028;SDS011;6581;42.662;23.402;2024-02-26T08:52:23;13.68;;;6.47;;
13028;SDS011;6581;42.662;23.402;2024-02-26T08:54:48;15.00;;;6.45;;
13028;SDS011;6581;42.662;23.402;2024-02-26T08:57:14;14.23;;;6.40;;
13028;SDS011;6581;42.662;23.402;2024-02-26T08:59:40;8.07;;;5.75;;
13028;SDS011;6581;42.662;23.402;2024-02-26T09:02:05;8.73;;;5.28;;
13028;SDS011;6581;42.662;23.402;2024-02-26T09:04:33;8.63;;;5.80;;
13028;SDS011;6581;42.662;23.402;2024-02-26T09:06:59;11.82;;;5.63;;
13028;SDS011;6581;42.662;23.402;2024-02-26T09:09:24;10.82;;;5.45;;
13028;SDS011;6581;42.662;23.402;2024-02-26T09:11:51;11.38;;;5.55;;
13028;SDS011;6581;42.662;23.402;2024-02-26T09:14:18;11.10;;;5.65;;
13028;SDS011;6581;42.662;23.402;2024-02-26T09:16:43;9.48;;;5.70;;
13028;SDS011;6581;42.662;23.402;2024-02-26T09:19:09;8.20;;;5.65;;
13028;SDS011;6581;42.662;23.402;2024-02-26T09:21:34;10.80;;;5.43;;
13028;SDS011;6581;42.662;23.402;2024-02-26T09:24:00;13.75;;;6.68;;
13028;SDS011;6581;42.662;23.402;2024-02-26T09:26:25;13.93;;;7.22;;
13028;SDS011;6581;42.662;23.402;2024-02-26T09:28:51;11.27;;;5.53;;
13028;SDS011;6581;42.662;23.402;2024-02-26T09:31:17;9.57;;;5.47;;
13028;SDS011;6581;42.662;23.402;2024-02-26T09:33:43;7.80;;;4.57;;
13028;SDS011;6581;42.662;23.402;2024-02-26T09:36:08;10.75;;;5.38;;
13028;SDS011;6581;42.662;23.402;2024-02-26T09:38:36;10.23;;;4.75;;
13028;SDS011;6581;42.662;23.402;2024-02-26T09:41:03;8.18;;;4.80;;
13028;SDS011;6581;42.662;23.402;2024-02-26T09:43:34;8.25;;;5.15;;
13028;SDS011;6581;42.662;23.402;2024-02-26T09:46:01;7.22;;;4.40;;
13028;SDS011;6581;42.662;23.402;2024-02-26T09:48:27;8.95;;;4.43;;
13028;SDS011;6581;42.662;23.402;2024-02-26T09:50:54;10.98;;;4.70;;
13028;SDS011;6581;42.662;23.402;2024-02-26T09:53:20;8.48;;;4.85;;
13028;SDS011;6581;42.662;23.402;2024-02-26T09:55:47;8.75;;;4.55;;
13028;SDS011;6581;42.662;23.402;2024-02-26T09:58:13;8.90;;;4.60;;
13028;SDS011;6581;42.662;23.402;2024-02-26T10:00:43;8.88;;;4.90;;
13028;SDS011;6581;42.662;23.402;2024-02-26T10:03:15;6.85;;;4.82;;
13028;SDS011;6581;42.662;23.402;2024-02-26T10:05:41;8.40;;;4.70;;
13028;SDS011;6581;42.662;23.402;2024-02-26T10:08:08;9.02;;;4.57;;
13028;SDS011;6581;42.662;23.402;2024-02-26T10:10:36;7.65;;;4.72;;
13028;SDS011;6581;42.662;23.402;2024-02-26T10:13:03;7.88;;;4.97;;
13028;SDS011;6581;42.662;23.402;2024-02-26T10:15:35;7.05;;;4.63;;
13028;SDS011;6581;42.662;23.402;2024-02-26T10:18:04;10.93;;;5.15;;
13028;SDS011;6581;42.662;23.402;2024-02-26T10:20:30;9.98;;;5.05;;
13028;SDS011;6581;42.662;23.402;2024-02-26T10:22:57;9.98;;;4.78;;
13028;SDS011;6581;42.662;23.402;2024-02-26T10:25:22;7.07;;;4.93;;
13028;SDS011;6581;42.662;23.402;2024-02-26T10:27:48;8.00;;;4.80;;
13028;SDS011;6581;42.662;23.402;2024-02-26T10:30:18;6.53;;;4.50;;
13028;SDS011;6581;42.662;23.402;2024-02-26T10:32:48;6.07;;;4.25;;
13028;SDS011;6581;42.662;23.402;2024-02-26T10:35:15;5.88;;;3.95;;
13028;SDS011;6581;42.662;23.402;2024-02-26T10:37:42;6.13;;;4.45;;
13028;SDS011;6581;42.662;23.402;2024-02-26T10:40:11;5.90;;;4.28;;
13028;SDS011;6581;42.662;23.402;2024-02-26T10:42:37;10.48;;;4.47;;
13028;SDS011;6581;42.662;23.402;2024-02-26T10:45:04;11.00;;;4.95;;
13028;SDS011;6581;42.662;23.402;2024-02-26T10:47:30;7.20;;;4.78;;
13028;SDS011;6581;42.662;23.402;2024-02-26T10:49:58;8.20;;;4.60;;
13028;SDS011;6581;42.662;23.402;2024-02-26T10:52:24;9.35;;;4.38;;
13028;SDS011;6581;42.662;23.402;2024-02-26T10:54:53;9.15;;;4.18;;
13028;SDS011;6581;42.662;23.402;2024-02-26T10:57:21;10.10;;;4.10;;
13028;SDS011;6581;42.662;23.402;2024-02-26T10:59:48;7.30;;;4.30;;
13028;SDS011;6581;42.662;23.402;2024-02-26T11:02:15;5.45;;;3.65;;
13028;SDS011;6581;42.662;23.402;2024-02-26T11:04:41;6.25;;;4.07;;
13028;SDS011;6581;42.662;23.402;2024-02-26T11:07:08;5.43;;;3.75;;
13028;SDS011;6581;42.662;23.402;2024-02-26T11:09:35;8.05;;;4.00;;
13028;SDS011;6581;42.662;23.402;2024-02-26T11:12:07;7.07;;;3.70;;
13028;SDS011;6581;42.662;23.402;2024-02-26T11:14:36;6.22;;;3.75;;
13028;SDS011;6581;42.662;23.402;2024-02-26T11:17:03;7.22;;;3.50;;
13028;SDS011;6581;42.662;23.402;2024-02-26T11:19:30;8.77;;;3.65;;
13028;SDS011;6581;42.662;23.402;2024-02-26T11:22:01;6.57;;;4.10;;
13028;SDS011;6581;42.662;23.402;2024-02-26T11:24:27;6.22;;;3.78;;
13028;SDS011;6581;42.662;23.402;2024-02-26T11:26:54;5.70;;;3.50;;
13028;SDS011;6581;42.662;23.402;2024-02-26T11:29:32;9.10;;;3.85;;
13028;SDS011;6581;42.662;23.402;2024-02-26T11:32:02;8.10;;;4.35;;
13028;SDS011;6581;42.662;23.402;2024-02-26T11:34:28;6.53;;;3.53;;
13028;SDS011;6581;42.662;23.402;2024-02-26T11:36:54;6.25;;;3.92;;
13028;SDS011;6581;42.662;23.402;2024-02-26T11:39:21;8.10;;;4.53;;
13028;SDS011;6581;42.662;23.402;2024-02-26T11:41:47;8.77;;;4.40;;
13028;SDS011;6581;42.662;23.402;2024-02-26T11:44:13;7.18;;;4.30;;
13028;SDS011;6581;42.662;23.402;2024-02-26T11:46:39;6.70;;;4.00;;
13028;SDS011;6581;42.662;23.402;2024-02-26T11:51:56;6.32;;;3.92;;
13028;SDS011;6581;42.662;23.402;2024-02-26T11:57:03;6.90;;;3.88;;
13028;SDS011;6581;42.662;23.402;2024-02-26T11:59:38;9.20;;;4.28;;
13028;SDS011;6581;42.662;23.402;2024-02-26T12:02:05;9.82;;;3.53;;
13028;SDS011;6581;42.662;23.402;2024-02-26T12:04:32;7.18;;;3.65;;
13028;SDS011;6581;42.662;23.402;2024-02-26T12:07:00;6.93;;;4.18;;
13028;SDS011;6581;42.662;23.402;2024-02-26T12:09:33;7.53;;;4.13;;
13028;SDS011;6581;42.662;23.402;2024-02-26T12:12:06;9.85;;;3.90;;
13028;SDS011;6581;42.662;23.402;2024-02-26T12:14:33;5.80;;;3.53;;
13028;SDS011;6581;42.662;23.402;2024-02-26T12:17:02;6.68;;;3.42;;
13028;SDS011;6581;42.662;23.402;2024-02-26T12:19:30;7.43;;;3.15;;
13028;SDS011;6581;42.662;23.402;2024-02-26T12:21:56;13.10;;;3.90;;
13028;SDS011;6581;42.662;23.402;2024-02-26T12:24:22;5.97;;;3.22;;
13028;SDS011;6581;42.662;23.402;2024-02-26T12:26:48;6.45;;;3.13;;
13028;SDS011;6581;42.662;23.402;2024-02-26T12:29:13;10.73;;;3.42;;
13028;SDS011;6581;42.662;23.402;2024-02-26T12:31:39;6.10;;;3.45;;
13028;SDS011;6581;42.662;23.402;2024-02-26T12:34:06;4.82;;;3.13;;
13028;SDS011;6581;42.662;23.402;2024-02-26T12:36:33;4.68;;;2.78;;
13028;SDS011;6581;42.662;23.402;2024-02-26T12:39:00;6.03;;;3.17;;
13028;SDS011;6581;42.662;23.402;2024-02-26T12:41:27;7.32;;;3.45;;
13028;SDS011;6581;42.662;23.402;2024-02-26T12:43:54;7.47;;;3.38;;
13028;SDS011;6581;42.662;23.402;2024-02-26T12:46:19;5.18;;;2.97;;
13028;SDS011;6581;42.662;23.402;2024-02-26T12:48:46;7.80;;;3.30;;
13028;SDS011;6581;42.662;23.402;2024-02-26T12:51:12;8.30;;;3.38;;
13028;SDS011;6581;42.662;23.402;2024-02-26T12:53:38;6.70;;;3.00;;
13028;SDS011;6581;42.662;23.402;2024-02-26T12:56:05;6.90;;;3.30;;
13028;SDS011;6581;42.662;23.402;2024-02-26T12:58:32;5.60;;;3.28;;
13028;SDS011;6581;42.662;23.402;2024-02-26T13:00:59;7.45;;;3.20;;
13028;SDS011;6581;42.662;23.402;2024-02-26T13:03:25;6.82;;;3.17;;
13028;SDS011;6581;42.662;23.402;2024-02-26T13:05:52;6.30;;;3.58;;
13028;SDS011;6581;42.662;23.402;2024-02-26T13:08:22;8.93;;;3.05;;
13028;SDS011;6581;42.662;23.402;2024-02-26T13:10:48;7.57;;;3.05;;
13028;SDS011;6581;42.662;23.402;2024-02-26T13:13:16;5.60;;;3.30;;
13028;SDS011;6581;42.662;23.402;2024-02-26T13:15:43;8.35;;;3.25;;
13028;SDS011;6581;42.662;23.402;2024-02-26T13:18:09;4.90;;;2.85;;
13028;SDS011;6581;42.662;23.402;2024-02-26T13:20:36;6.32;;;3.28;;
13028;SDS011;6581;42.662;23.402;2024-02-26T13:23:02;9.65;;;3.40;;
13028;SDS011;6581;42.662;23.402;2024-02-26T13:25:29;6.03;;;3.10;;
13028;SDS011;6581;42.662;23.402;2024-02-26T13:28:08;7.85;;;3.15;;
13028;SDS011;6581;42.662;23.402;2024-02-26T13:30:34;4.38;;;2.75;;
13028;SDS011;6581;42.662;23.402;2024-02-26T13:33:10;6.70;;;2.70;;
13028;SDS011;6581;42.662;23.402;2024-02-26T13:35:37;6.63;;;3.05;;
13028;SDS011;6581;42.662;23.402;2024-02-26T13:38:04;4.85;;;2.72;;
13028;SDS011;6581;42.662;23.402;2024-02-26T13:40:31;4.57;;;2.80;;
13028;SDS011;6581;42.662;23.402;2024-02-26T13:42:57;6.55;;;3.45;;
13028;SDS011;6581;42.662;23.402;2024-02-26T13:45:22;7.40;;;3.13;;
13028;SDS011;6581;42.662;23.402;2024-02-26T13:47:48;9.38;;;3.53;;
13028;SDS011;6581;42.662;23.402;2024-02-26T13:50:14;5.50;;;2.78;;
13028;SDS011;6581;42.662;23.402;2024-02-26T13:52:39;5.47;;;2.83;;
13028;SDS011;6581;42.662;23.402;2024-02-26T13:55:05;4.40;;;2.60;;
13028;SDS011;6581;42.662;23.402;2024-02-26T13:57:32;4.63;;;2.83;;
13028;SDS011;6581;42.662;23.402;2024-02-26T13:59:58;7.07;;;2.78;;
13028;SDS011;6581;42.662;23.402;2024-02-26T14:02:23;6.90;;;2.65;;
13028;SDS011;6581;42.662;23.402;2024-02-26T14:04:49;7.72;;;2.72;;
13028;SDS011;6581;42.662;23.402;2024-02-26T14:07:14;6.90;;;3.05;;
13028;SDS011;6581;42.662;23.402;2024-02-26T14:09:42;5.70;;;2.92;;
13028;SDS011;6581;42.662;23.402;2024-02-26T14:12:07;6.78;;;2.53;;
13028;SDS011;6581;42.662;23.402;2024-02-26T14:14:33;6.35;;;2.78;;
13028;SDS011;6581;42.662;23.402;2024-02-26T14:17:01;5.43;;;2.60;;
13028;SDS011;6581;42.662;23.402;2024-02-26T14:19:28;7.07;;;2.78;;
13028;SDS011;6581;42.662;23.402;2024-02-26T14:21:54;7.00;;;2.90;;
13028;SDS011;6581;42.662;23.402;2024-02-26T14:24:19;6.57;;;2.35;;
13028;SDS011;6581;42.662;23.402;2024-02-26T14:26:45;5.35;;;2.97;;
13028;SDS011;6581;42.662;23.402;2024-02-26T14:29:11;9.68;;;2.63;;
13028;SDS011;6581;42.662;23.402;2024-02-26T14:31:36;3.53;;;2.20;;
13028;SDS011;6581;42.662;23.402;2024-02-26T14:34:02;5.53;;;2.53;;
13028;SDS011;6581;42.662;23.402;2024-02-26T14:36:27;5.30;;;2.97;;